sensor_id;sensor_type;location;lat;lon;timestamp;P1;durP1;ratioP1;P2;durP2;ratioP2
2039;SDS011;1025;42.686;23.350;2023-04-19T00:02:44;1.77;;;1.67;;
2039;SDS011;1025;42.686;23.350;2023-04-19T00:06:09;1.80;;;1.70;;
2039;SDS011;1025;42.686;23.350;2023-04-19T00:09:35;2.70;;;1.67;;
2039;SDS011;1025;42.686;23.350;2023-04-19T00:13:01;2.93;;;2.60;;
2039;SDS011;1025;42.686;23.350;2023-04-19T00:16:27;1.50;;;1.40;;
2039;SDS011;1025;42.686;23.350;2023-04-19T00:19:54;2.53;;;1.73;;
2039;SDS011;1025;42.686;23.350;2023-04-19T00:23:20;1.53;;;1.43;;
2039;SDS011;1025;42.686;23.350;2023-04-19T00:26:46;1.33;;;1.27;;
2039;SDS011;1025;42.686;23.350;2023-04-19T00:30:11;2.90;;;1.37;;
2039;SDS011;1025;42.686;23.350;2023-04-19T00:33:37;1.40;;;1.30;;
2039;SDS011;1025;42.686;23.350;2023-04-19T00:37:03;3.17;;;1.87;;
2039;SDS011;1025;42.686;23.350;2023-04-19T00:40:30;1.37;;;1.27;;
2039;SDS011;1025;42.686;23.350;2023-04-19T00:43:55;2.47;;;2.27;;
2039;SDS011;1025;42.686;23.350;2023-04-19T00:47:20;1.50;;;1.40;;
2039;SDS011;1025;42.686;23.350;2023-04-19T00:50:46;1.60;;;1.50;;
2039;SDS011;1025;42.686;23.350;2023-04-19T00:54:13;1.77;;;1.67;;
2039;SDS011;1025;42.686;23.350;2023-04-19T00:57:39;1.53;;;1.43;;
2039;SDS011;1025;42.686;23.350;2023-04-19T01:01:04;2.77;;;2.13;;
2039;SDS011;1025;42.686;23.350;2023-04-19T01:04:31;3.10;;;1.80;;
2039;SDS011;1025;42.686;23.350;2023-04-19T01:07:56;1.63;;;1.43;;
2039;SDS011;1025;42.686;23.350;2023-04-19T01:11:23;1.83;;;1.73;;
2039;SDS011;1025;42.686;23.350;2023-04-19T01:14:49;2.07;;;1.30;;
2039;SDS011;1025;42.686;23.350;2023-04-19T01:18:15;1.80;;;1.70;;
2039;SDS011;1025;42.686;23.350;2023-04-19T01:21:40;4.30;;;2.70;;
2039;SDS011;1025;42.686;23.350;2023-04-19T01:25:07;2.87;;;2.67;;
2039;SDS011;1025;42.686;23.350;2023-04-19T01:28:33;3.23;;;2.10;;
2039;SDS011;1025;42.686;23.350;2023-04-19T01:31:57;2.83;;;2.20;;
2039;SDS011;1025;42.686;23.350;2023-04-19T01:35:22;1.83;;;1.73;;
2039;SDS011;1025;42.686;23.350;2023-04-19T01:38:49;5.63;;;3.40;;
2039;SDS011;1025;42.686;23.350;2023-04-19T01:42:15;7.53;;;2.67;;
2039;SDS011;1025;42.686;23.350;2023-04-19T01:45:42;4.80;;;2.47;;
2039;SDS011;1025;42.686;23.350;2023-04-19T01:49:07;2.43;;;2.20;;
2039;SDS011;1025;42.686;23.350;2023-04-19T01:52:33;2.53;;;2.33;;
2039;SDS011;1025;42.686;23.350;2023-04-19T01:56:00;2.20;;;2.10;;
2039;SDS011;1025;42.686;23.350;2023-04-19T01:59:25;2.43;;;2.27;;
2039;SDS011;1025;42.686;23.350;2023-04-19T02:02:50;2.53;;;2.23;;
2039;SDS011;1025;42.686;23.350;2023-04-19T02:06:16;2.17;;;2.07;;
2039;SDS011;1025;42.686;23.350;2023-04-19T02:09:41;5.17;;;2.90;;
2039;SDS011;1025;42.686;23.350;2023-04-19T02:13:08;2.40;;;2.30;;
2039;SDS011;1025;42.686;23.350;2023-04-19T02:16:33;4.87;;;2.80;;
2039;SDS011;1025;42.686;23.350;2023-04-19T02:19:58;2.83;;;2.63;;
2039;SDS011;1025;42.686;23.350;2023-04-19T02:23:24;2.40;;;2.30;;
2039;SDS011;1025;42.686;23.350;2023-04-19T02:26:50;3.10;;;2.90;;
2039;SDS011;1025;42.686;23.350;2023-04-19T02:30:16;3.27;;;3.07;;
2039;SDS011;1025;42.686;23.350;2023-04-19T02:33:42;3.00;;;2.37;;
2039;SDS011;1025;42.686;23.350;2023-04-19T02:37:07;3.20;;;3.00;;
2039;SDS011;1025;42.686;23.350;2023-04-19T02:40:32;3.10;;;2.90;;
2039;SDS011;1025;42.686;23.350;2023-04-19T02:43:58;4.80;;;3.13;;
2039;SDS011;1025;42.686;23.350;2023-04-19T02:47:24;3.20;;;2.90;;
2039;SDS011;1025;42.686;23.350;2023-04-19T02:50:50;3.27;;;3.07;;
2039;SDS011;1025;42.686;23.350;2023-04-19T02:54:16;5.10;;;3.67;;
2039;SDS011;1025;42.686;23.350;2023-04-19T02:57:41;4.80;;;3.60;;
2039;SDS011;1025;42.686;23.350;2023-04-19T03:01:06;8.37;;;3.40;;
2039;SDS011;1025;42.686;23.350;2023-04-19T03:04:33;11.13;;;4.80;;
2039;SDS011;1025;42.686;23.350;2023-04-19T03:07:58;5.57;;;4.37;;
2039;SDS011;1025;42.686;23.350;2023-04-19T03:11:14;7.30;;;4.10;;
2039;SDS011;1025;42.686;23.350;2023-04-19T03:14:39;4.03;;;3.60;;
2039;SDS011;1025;42.686;23.350;2023-04-19T03:18:03;5.07;;;4.67;;
2039;SDS011;1025;42.686;23.350;2023-04-19T03:21:30;9.37;;;4.20;;
2039;SDS011;1025;42.686;23.350;2023-04-19T03:24:55;6.37;;;4.40;;
2039;SDS011;1025;42.686;23.350;2023-04-19T03:28:21;6.03;;;4.57;;
2039;SDS011;1025;42.686;23.350;2023-04-19T03:31:35;3.73;;;3.43;;
2039;SDS011;1025;42.686;23.350;2023-04-19T03:35:01;4.70;;;4.40;;
2039;SDS011;1025;42.686;23.350;2023-04-19T03:38:28;6.00;;;4.67;;
2039;SDS011;1025;42.686;23.350;2023-04-19T03:41:53;4.40;;;3.97;;
2039;SDS011;1025;42.686;23.350;2023-04-19T03:45:18;6.90;;;4.63;;
2039;SDS011;1025;42.686;23.350;2023-04-19T03:48:44;6.47;;;5.67;;
2039;SDS011;1025;42.686;23.350;2023-04-19T03:52:09;5.90;;;5.30;;
2039;SDS011;1025;42.686;23.350;2023-04-19T03:55:36;4.90;;;4.40;;
2039;SDS011;1025;42.686;23.350;2023-04-19T03:59:01;7.90;;;6.07;;
2039;SDS011;1025;42.686;23.350;2023-04-19T04:02:31;7.17;;;5.70;;
2039;SDS011;1025;42.686;23.350;2023-04-19T04:05:56;11.77;;;4.93;;
2039;SDS011;1025;42.686;23.350;2023-04-19T04:09:22;7.63;;;5.13;;
2039;SDS011;1025;42.686;23.350;2023-04-19T04:12:49;6.00;;;5.40;;
2039;SDS011;1025;42.686;23.350;2023-04-19T04:16:14;19.67;;;7.20;;
2039;SDS011;1025;42.686;23.350;2023-04-19T04:19:40;8.27;;;5.00;;
2039;SDS011;1025;42.686;23.350;2023-04-19T04:23:05;11.17;;;5.40;;
2039;SDS011;1025;42.686;23.350;2023-04-19T04:26:32;17.87;;;5.87;;
2039;SDS011;1025;42.686;23.350;2023-04-19T04:29:56;8.50;;;5.70;;
2039;SDS011;1025;42.686;23.350;2023-04-19T04:33:23;6.07;;;5.47;;
2039;SDS011;1025;42.686;23.350;2023-04-19T04:36:48;9.73;;;5.60;;
2039;SDS011;1025;42.686;23.350;2023-04-19T04:40:14;9.37;;;7.17;;
2039;SDS011;1025;42.686;23.350;2023-04-19T04:43:40;11.13;;;6.63;;
2039;SDS011;1025;42.686;23.350;2023-04-19T04:47:08;14.20;;;7.37;;
2039;SDS011;1025;42.686;23.350;2023-04-19T04:50:33;8.20;;;5.57;;
2039;SDS011;1025;42.686;23.350;2023-04-19T04:53:45;6.00;;;5.20;;
2039;SDS011;1025;42.686;23.350;2023-04-19T04:57:07;8.67;;;5.40;;
2039;SDS011;1025;42.686;23.350;2023-04-19T05:00:32;6.90;;;5.97;;
2039;SDS011;1025;42.686;23.350;2023-04-19T05:03:56;11.37;;;5.97;;
2039;SDS011;1025;42.686;23.350;2023-04-19T05:07:22;13.80;;;5.60;;
2039;SDS011;1025;42.686;23.350;2023-04-19T05:10:47;13.33;;;7.67;;
2039;SDS011;1025;42.686;23.350;2023-04-19T05:13:58;11.17;;;5.97;;
2039;SDS011;1025;42.686;23.350;2023-04-19T05:17:23;10.70;;;6.27;;
2039;SDS011;1025;42.686;23.350;2023-04-19T05:20:50;16.60;;;7.40;;
2039;SDS011;1025;42.686;23.350;2023-04-19T05:24:15;11.20;;;6.20;;
2039;SDS011;1025;42.686;23.350;2023-04-19T05:27:41;6.70;;;5.87;;
2039;SDS011;1025;42.686;23.350;2023-04-19T05:31:07;8.53;;;5.80;;
2039;SDS011;1025;42.686;23.350;2023-04-19T05:34:32;12.33;;;10.03;;
2039;SDS011;1025;42.686;23.350;2023-04-19T05:37:59;23.03;;;8.80;;
2039;SDS011;1025;42.686;23.350;2023-04-19T05:41:24;7.70;;;6.20;;
2039;SDS011;1025;42.686;23.350;2023-04-19T05:44:49;12.10;;;6.17;;
2039;SDS011;1025;42.686;23.350;2023-04-19T05:48:15;5.80;;;5.37;;
2039;SDS011;1025;42.686;23.350;2023-04-19T05:51:40;22.80;;;7.53;;
2039;SDS011;1025;42.686;23.350;2023-04-19T05:55:07;11.90;;;10.70;;
2039;SDS011;1025;42.686;23.350;2023-04-19T05:58:32;11.73;;;6.00;;
2039;SDS011;1025;42.686;23.350;2023-04-19T06:01:58;11.67;;;7.07;;
2039;SDS011;1025;42.686;23.350;2023-04-19T06:05:23;8.53;;;7.23;;
2039;SDS011;1025;42.686;23.350;2023-04-19T06:08:49;14.60;;;7.40;;
2039;SDS011;1025;42.686;23.350;2023-04-19T06:12:15;14.00;;;6.67;;
2039;SDS011;1025;42.686;23.350;2023-04-19T06:15:41;7.27;;;6.20;;
2039;SDS011;1025;42.686;23.350;2023-04-19T06:19:07;6.63;;;6.00;;
2039;SDS011;1025;42.686;23.350;2023-04-19T06:22:34;18.90;;;6.80;;
2039;SDS011;1025;42.686;23.350;2023-04-19T06:25:59;11.93;;;7.50;;
2039;SDS011;1025;42.686;23.350;2023-04-19T06:29:27;8.00;;;5.90;;
2039;SDS011;1025;42.686;23.350;2023-04-19T06:32:52;10.40;;;6.80;;
2039;SDS011;1025;42.686;23.350;2023-04-19T06:36:18;12.20;;;5.67;;
2039;SDS011;1025;42.686;23.350;2023-04-19T06:39:43;8.43;;;5.30;;
2039;SDS011;1025;42.686;23.350;2023-04-19T06:43:08;12.27;;;6.80;;
2039;SDS011;1025;42.686;23.350;2023-04-19T06:46:35;18.03;;;7.30;;
2039;SDS011;1025;42.686;23.350;2023-04-19T06:50:00;11.00;;;6.30;;
2039;SDS011;1025;42.686;23.350;2023-04-19T06:53:26;8.30;;;6.17;;
2039;SDS011;1025;42.686;23.350;2023-04-19T06:56:45;12.07;;;5.40;;
2039;SDS011;1025;42.686;23.350;2023-04-19T07:00:11;11.80;;;6.70;;
2039;SDS011;1025;42.686;23.350;2023-04-19T07:03:38;10.43;;;5.97;;
2039;SDS011;1025;42.686;23.350;2023-04-19T07:07:03;11.73;;;7.00;;
2039;SDS011;1025;42.686;23.350;2023-04-19T07:10:29;6.97;;;4.90;;
2039;SDS011;1025;42.686;23.350;2023-04-19T07:13:54;7.03;;;5.23;;
2039;SDS011;1025;42.686;23.350;2023-04-19T07:17:21;10.80;;;5.70;;
2039;SDS011;1025;42.686;23.350;2023-04-19T07:20:44;6.03;;;4.90;;
2039;SDS011;1025;42.686;23.350;2023-04-19T07:24:05;7.30;;;5.47;;
2039;SDS011;1025;42.686;23.350;2023-04-19T07:27:18;12.60;;;6.40;;
2039;SDS011;1025;42.686;23.350;2023-04-19T07:30:43;15.17;;;10.00;;
2039;SDS011;1025;42.686;23.350;2023-04-19T07:33:56;6.63;;;4.07;;
2039;SDS011;1025;42.686;23.350;2023-04-19T07:37:23;8.60;;;5.00;;
2039;SDS011;1025;42.686;23.350;2023-04-19T07:40:49;9.20;;;6.20;;
2039;SDS011;1025;42.686;23.350;2023-04-19T07:44:14;9.20;;;6.80;;
2039;SDS011;1025;42.686;23.350;2023-04-19T07:47:39;7.47;;;4.80;;
2039;SDS011;1025;42.686;23.350;2023-04-19T07:50:54;8.77;;;5.30;;
2039;SDS011;1025;42.686;23.350;2023-04-19T07:54:21;6.73;;;5.00;;
2039;SDS011;1025;42.686;23.350;2023-04-19T07:57:40;10.93;;;6.07;;
2039;SDS011;1025;42.686;23.350;2023-04-19T08:00:35;9.90;;;4.97;;
2039;SDS011;1025;42.686;23.350;2023-04-19T08:04:00;13.10;;;4.87;;
2039;SDS011;1025;42.686;23.350;2023-04-19T08:07:01;8.00;;;5.10;;
2039;SDS011;1025;42.686;23.350;2023-04-19T08:10:16;6.27;;;4.43;;
2039;SDS011;1025;42.686;23.350;2023-04-19T08:13:20;7.37;;;5.10;;
2039;SDS011;1025;42.686;23.350;2023-04-19T08:16:21;6.93;;;5.00;;
2039;SDS011;1025;42.686;23.350;2023-04-19T08:19:48;8.20;;;5.43;;
2039;SDS011;1025;42.686;23.350;2023-04-19T08:23:07;8.47;;;4.87;;
2039;SDS011;1025;42.686;23.350;2023-04-19T08:26:34;11.50;;;6.70;;
2039;SDS011;1025;42.686;23.350;2023-04-19T08:30:00;7.43;;;4.03;;
2039;SDS011;1025;42.686;23.350;2023-04-19T08:33:25;15.50;;;4.70;;
2039;SDS011;1025;42.686;23.350;2023-04-19T08:36:50;10.90;;;4.60;;
2039;SDS011;1025;42.686;23.350;2023-04-19T08:40:12;6.93;;;4.57;;
2039;SDS011;1025;42.686;23.350;2023-04-19T08:43:40;14.83;;;8.70;;
2039;SDS011;1025;42.686;23.350;2023-04-19T08:47:03;7.87;;;4.80;;
2039;SDS011;1025;42.686;23.350;2023-04-19T08:50:19;6.57;;;3.77;;
2039;SDS011;1025;42.686;23.350;2023-04-19T08:53:45;14.00;;;4.70;;
2039;SDS011;1025;42.686;23.350;2023-04-19T08:57:00;4.20;;;3.80;;
2039;SDS011;1025;42.686;23.350;2023-04-19T09:00:29;5.40;;;4.67;;
2039;SDS011;1025;42.686;23.350;2023-04-19T09:03:56;5.37;;;4.03;;
2039;SDS011;1025;42.686;23.350;2023-04-19T09:07:21;10.90;;;4.63;;
2039;SDS011;1025;42.686;23.350;2023-04-19T09:10:09;3.93;;;3.63;;
2039;SDS011;1025;42.686;23.350;2023-04-19T09:13:35;4.70;;;4.30;;
2039;SDS011;1025;42.686;23.350;2023-04-19T09:16:33;4.47;;;3.70;;
2039;SDS011;1025;42.686;23.350;2023-04-19T09:19:59;5.33;;;3.40;;
2039;SDS011;1025;42.686;23.350;2023-04-19T09:23:14;5.33;;;3.47;;
2039;SDS011;1025;42.686;23.350;2023-04-19T09:26:40;6.90;;;3.03;;
2039;SDS011;1025;42.686;23.350;2023-04-19T09:30:12;4.87;;;3.17;;
2039;SDS011;1025;42.686;23.350;2023-04-19T09:33:40;4.30;;;3.13;;
2039;SDS011;1025;42.686;23.350;2023-04-19T09:37:15;2.30;;;2.20;;
2039;SDS011;1025;42.686;23.350;2023-04-19T09:40:41;6.80;;;3.10;;
2039;SDS011;1025;42.686;23.350;2023-04-19T09:44:15;3.87;;;3.13;;
2039;SDS011;1025;42.686;23.350;2023-04-19T09:47:41;3.77;;;3.40;;
2039;SDS011;1025;42.686;23.350;2023-04-19T09:50:52;4.90;;;3.20;;
2039;SDS011;1025;42.686;23.350;2023-04-19T09:54:05;8.77;;;3.07;;
2039;SDS011;1025;42.686;23.350;2023-04-19T09:57:11;3.40;;;3.10;;
2039;SDS011;1025;42.686;23.350;2023-04-19T10:00:29;2.30;;;2.07;;
2039;SDS011;1025;42.686;23.350;2023-04-19T10:03:55;2.30;;;2.20;;
2039;SDS011;1025;42.686;23.350;2023-04-19T10:07:24;2.90;;;2.53;;
2039;SDS011;1025;42.686;23.350;2023-04-19T10:10:51;3.80;;;3.50;;
2039;SDS011;1025;42.686;23.350;2023-04-19T10:14:18;3.00;;;2.80;;
2039;SDS011;1025;42.686;23.350;2023-04-19T10:17:46;3.67;;;3.37;;
2039;SDS011;1025;42.686;23.350;2023-04-19T10:21:13;4.63;;;2.97;;
2039;SDS011;1025;42.686;23.350;2023-04-19T10:24:41;4.20;;;3.20;;
2039;SDS011;1025;42.686;23.350;2023-04-19T10:28:26;5.30;;;3.20;;
2039;SDS011;1025;42.686;23.350;2023-04-19T10:32:07;3.83;;;3.43;;
2039;SDS011;1025;42.686;23.350;2023-04-19T10:39:38;3.60;;;2.40;;
2039;SDS011;1025;42.686;23.350;2023-04-19T10:43:16;2.93;;;2.63;;
2039;SDS011;1025;42.686;23.350;2023-04-19T10:46:41;6.53;;;3.03;;
2039;SDS011;1025;42.686;23.350;2023-04-19T10:50:07;4.87;;;3.00;;
2039;SDS011;1025;42.686;23.350;2023-04-19T10:53:42;13.63;;;3.37;;
2039;SDS011;1025;42.686;23.350;2023-04-19T10:57:08;8.40;;;3.40;;
2039;SDS011;1025;42.686;23.350;2023-04-19T11:00:35;9.53;;;8.30;;
2039;SDS011;1025;42.686;23.350;2023-04-19T11:04:03;9.23;;;3.73;;
2039;SDS011;1025;42.686;23.350;2023-04-19T11:07:39;4.20;;;3.63;;
2039;SDS011;1025;42.686;23.350;2023-04-19T11:11:07;2.43;;;2.33;;
2039;SDS011;1025;42.686;23.350;2023-04-19T11:14:34;2.73;;;2.53;;
2039;SDS011;1025;42.686;23.350;2023-04-19T11:18:07;2.70;;;2.50;;
2039;SDS011;1025;42.686;23.350;2023-04-19T11:21:43;3.63;;;2.70;;
2039;SDS011;1025;42.686;23.350;2023-04-19T11:25:10;2.77;;;2.57;;
2039;SDS011;1025;42.686;23.350;2023-04-19T11:28:36;3.90;;;2.80;;
2039;SDS011;1025;42.686;23.350;2023-04-19T11:32:03;3.33;;;3.03;;
2039;SDS011;1025;42.686;23.350;2023-04-19T11:35:28;4.43;;;4.00;;
2039;SDS011;1025;42.686;23.350;2023-04-19T11:38:53;5.97;;;3.30;;
2039;SDS011;1025;42.686;23.350;2023-04-19T11:42:18;8.50;;;3.40;;
2039;SDS011;1025;42.686;23.350;2023-04-19T11:45:43;3.30;;;2.70;;
2039;SDS011;1025;42.686;23.350;2023-04-19T11:49:26;2.23;;;2.00;;
2039;SDS011;1025;42.686;23.350;2023-04-19T11:52:54;4.73;;;2.80;;
2039;SDS011;1025;42.686;23.350;2023-04-19T11:56:19;9.53;;;3.00;;
2039;SDS011;1025;42.686;23.350;2023-04-19T12:00:01;3.57;;;2.90;;
2039;SDS011;1025;42.686;23.350;2023-04-19T12:03:30;3.90;;;2.77;;
2039;SDS011;1025;42.686;23.350;2023-04-19T12:06:56;6.80;;;3.90;;
2039;SDS011;1025;42.686;23.350;2023-04-19T12:10:29;5.47;;;3.53;;
2039;SDS011;1025;42.686;23.350;2023-04-19T12:14:07;5.23;;;2.67;;
2039;SDS011;1025;42.686;23.350;2023-04-19T12:17:33;3.70;;;3.40;;
2039;SDS011;1025;42.686;23.350;2023-04-19T12:21:09;2.50;;;2.30;;
2039;SDS011;1025;42.686;23.350;2023-04-19T12:24:40;4.70;;;3.07;;
2039;SDS011;1025;42.686;23.350;2023-04-19T12:27:55;3.47;;;2.63;;
2039;SDS011;1025;42.686;23.350;2023-04-19T12:31:22;2.10;;;2.00;;
2039;SDS011;1025;42.686;23.350;2023-04-19T12:34:47;2.53;;;2.00;;
2039;SDS011;1025;42.686;23.350;2023-04-19T12:37:46;5.27;;;3.60;;
2039;SDS011;1025;42.686;23.350;2023-04-19T12:41:11;3.30;;;2.43;;
2039;SDS011;1025;42.686;23.350;2023-04-19T12:44:36;4.10;;;3.70;;
2039;SDS011;1025;42.686;23.350;2023-04-19T12:48:02;2.30;;;2.10;;
2039;SDS011;1025;42.686;23.350;2023-04-19T12:51:27;2.67;;;2.47;;
2039;SDS011;1025;42.686;23.350;2023-04-19T12:54:54;2.50;;;2.30;;
2039;SDS011;1025;42.686;23.350;2023-04-19T12:58:16;4.97;;;3.00;;
2039;SDS011;1025;42.686;23.350;2023-04-19T13:01:42;7.70;;;5.23;;
2039;SDS011;1025;42.686;23.350;2023-04-19T13:05:07;2.63;;;2.43;;
2039;SDS011;1025;42.686;23.350;2023-04-19T13:08:33;2.60;;;2.40;;
2039;SDS011;1025;42.686;23.350;2023-04-19T13:11:50;4.40;;;2.30;;
2039;SDS011;1025;42.686;23.350;2023-04-19T13:15:16;3.67;;;3.07;;
2039;SDS011;1025;42.686;23.350;2023-04-19T13:18:41;3.37;;;2.80;;
2039;SDS011;1025;42.686;23.350;2023-04-19T13:22:06;5.73;;;3.80;;
2039;SDS011;1025;42.686;23.350;2023-04-19T13:25:32;4.37;;;2.57;;
2039;SDS011;1025;42.686;23.350;2023-04-19T13:28:54;10.33;;;4.30;;
2039;SDS011;1025;42.686;23.350;2023-04-19T13:32:20;3.90;;;3.60;;
2039;SDS011;1025;42.686;23.350;2023-04-19T13:35:45;8.40;;;3.20;;
2039;SDS011;1025;42.686;23.350;2023-04-19T13:39:10;3.00;;;1.93;;
2039;SDS011;1025;42.686;23.350;2023-04-19T13:42:37;1.90;;;1.80;;
2039;SDS011;1025;42.686;23.350;2023-04-19T13:46:04;3.23;;;2.90;;
2039;SDS011;1025;42.686;23.350;2023-04-19T13:49:30;6.77;;;2.47;;
2039;SDS011;1025;42.686;23.350;2023-04-19T13:52:55;4.43;;;2.87;;
2039;SDS011;1025;42.686;23.350;2023-04-19T13:56:20;5.13;;;3.50;;
2039;SDS011;1025;42.686;23.350;2023-04-19T13:59:46;2.90;;;2.57;;
2039;SDS011;1025;42.686;23.350;2023-04-19T14:03:13;3.90;;;2.77;;
2039;SDS011;1025;42.686;23.350;2023-04-19T14:06:39;4.17;;;3.37;;
2039;SDS011;1025;42.686;23.350;2023-04-19T14:10:04;3.03;;;2.83;;
2039;SDS011;1025;42.686;23.350;2023-04-19T14:13:30;3.80;;;3.50;;
2039;SDS011;1025;42.686;23.350;2023-04-19T14:16:55;13.37;;;4.03;;
2039;SDS011;1025;42.686;23.350;2023-04-19T14:20:22;1.97;;;1.87;;
2039;SDS011;1025;42.686;23.350;2023-04-19T14:23:47;4.13;;;2.47;;
2039;SDS011;1025;42.686;23.350;2023-04-19T14:27:13;2.50;;;1.87;;
2039;SDS011;1025;42.686;23.350;2023-04-19T14:30:39;2.07;;;1.97;;
2039;SDS011;1025;42.686;23.350;2023-04-19T14:34:04;2.60;;;2.40;;
2039;SDS011;1025;42.686;23.350;2023-04-19T14:37:31;2.53;;;2.33;;
2039;SDS011;1025;42.686;23.350;2023-04-19T14:40:56;2.67;;;2.47;;
2039;SDS011;1025;42.686;23.350;2023-04-19T14:44:22;2.43;;;2.20;;
2039;SDS011;1025;42.686;23.350;2023-04-19T14:47:47;3.20;;;2.60;;
2039;SDS011;1025;42.686;23.350;2023-04-19T14:51:13;6.00;;;3.40;;
2039;SDS011;1025;42.686;23.350;2023-04-19T14:54:39;4.20;;;2.90;;
2039;SDS011;1025;42.686;23.350;2023-04-19T14:58:05;3.83;;;3.43;;
2039;SDS011;1025;42.686;23.350;2023-04-19T15:01:30;4.67;;;3.27;;
2039;SDS011;1025;42.686;23.350;2023-04-19T15:04:55;8.40;;;4.47;;
2039;SDS011;1025;42.686;23.350;2023-04-19T15:08:20;4.20;;;2.80;;
2039;SDS011;1025;42.686;23.350;2023-04-19T15:11:48;7.60;;;3.60;;
2039;SDS011;1025;42.686;23.350;2023-04-19T15:15:13;3.63;;;3.20;;
2039;SDS011;1025;42.686;23.350;2023-04-19T15:18:38;2.40;;;2.20;;
2039;SDS011;1025;42.686;23.350;2023-04-19T15:22:04;3.20;;;2.90;;
2039;SDS011;1025;42.686;23.350;2023-04-19T15:25:29;2.47;;;2.30;;
2039;SDS011;1025;42.686;23.350;2023-04-19T15:28:56;15.87;;;5.10;;
2039;SDS011;1025;42.686;23.350;2023-04-19T15:32:21;5.80;;;3.40;;
2039;SDS011;1025;42.686;23.350;2023-04-19T15:35:47;3.53;;;2.90;;
2039;SDS011;1025;42.686;23.350;2023-04-19T15:39:15;3.70;;;2.40;;
2039;SDS011;1025;42.686;23.350;2023-04-19T15:42:41;2.53;;;2.30;;
2039;SDS011;1025;42.686;23.350;2023-04-19T15:46:08;4.30;;;3.93;;
2039;SDS011;1025;42.686;23.350;2023-04-19T15:49:33;2.37;;;2.27;;
2039;SDS011;1025;42.686;23.350;2023-04-19T15:52:58;10.33;;;3.30;;
2039;SDS011;1025;42.686;23.350;2023-04-19T15:56:23;3.80;;;3.50;;
2039;SDS011;1025;42.686;23.350;2023-04-19T15:59:39;4.33;;;2.90;;
2039;SDS011;1025;42.686;23.350;2023-04-19T16:03:07;3.00;;;2.80;;
2039;SDS011;1025;42.686;23.350;2023-04-19T16:06:32;4.90;;;3.03;;
2039;SDS011;1025;42.686;23.350;2023-04-19T16:09:56;4.43;;;3.77;;
2039;SDS011;1025;42.686;23.350;2023-04-19T16:13:22;3.50;;;3.20;;
2039;SDS011;1025;42.686;23.350;2023-04-19T16:16:47;5.53;;;4.30;;
2039;SDS011;1025;42.686;23.350;2023-04-19T16:20:14;5.53;;;4.30;;
2039;SDS011;1025;42.686;23.350;2023-04-19T16:23:39;5.10;;;4.70;;
2039;SDS011;1025;42.686;23.350;2023-04-19T16:27:05;7.83;;;5.57;;
2039;SDS011;1025;42.686;23.350;2023-04-19T16:30:27;7.97;;;5.73;;
2039;SDS011;1025;42.686;23.350;2023-04-19T16:33:52;6.70;;;5.80;;
2039;SDS011;1025;42.686;23.350;2023-04-19T16:37:19;10.33;;;7.70;;
2039;SDS011;1025;42.686;23.350;2023-04-19T16:40:44;7.77;;;7.00;;
2039;SDS011;1025;42.686;23.350;2023-04-19T16:44:10;10.03;;;7.50;;
2039;SDS011;1025;42.686;23.350;2023-04-19T16:47:37;7.70;;;7.00;;
2039;SDS011;1025;42.686;23.350;2023-04-19T16:51:03;6.33;;;5.83;;
2039;SDS011;1025;42.686;23.350;2023-04-19T16:54:29;8.90;;;7.10;;
2039;SDS011;1025;42.686;23.350;2023-04-19T16:57:55;6.90;;;6.30;;
2039;SDS011;1025;42.686;23.350;2023-04-19T17:01:21;8.93;;;7.30;;
2039;SDS011;1025;42.686;23.350;2023-04-19T17:04:46;9.20;;;6.60;;
2039;SDS011;1025;42.686;23.350;2023-04-19T17:08:11;8.00;;;7.30;;
2039;SDS011;1025;42.686;23.350;2023-04-19T17:11:38;9.13;;;8.23;;
2039;SDS011;1025;42.686;23.350;2023-04-19T17:15:01;8.47;;;7.77;;
2039;SDS011;1025;42.686;23.350;2023-04-19T17:18:26;8.40;;;7.70;;
2039;SDS011;1025;42.686;23.350;2023-04-19T17:21:51;9.20;;;8.47;;
2039;SDS011;1025;42.686;23.350;2023-04-19T17:25:17;12.20;;;8.70;;
2039;SDS011;1025;42.686;23.350;2023-04-19T17:28:39;11.20;;;8.53;;
2039;SDS011;1025;42.686;23.350;2023-04-19T17:32:05;9.13;;;8.33;;
2039;SDS011;1025;42.686;23.350;2023-04-19T17:35:30;9.80;;;8.80;;
2039;SDS011;1025;42.686;23.350;2023-04-19T17:38:55;15.03;;;9.40;;
2039;SDS011;1025;42.686;23.350;2023-04-19T17:42:21;10.37;;;9.40;;
2039;SDS011;1025;42.686;23.350;2023-04-19T17:45:48;16.30;;;11.03;;
2039;SDS011;1025;42.686;23.350;2023-04-19T17:49:14;17.63;;;10.20;;
2039;SDS011;1025;42.686;23.350;2023-04-19T17:52:40;12.33;;;10.67;;
2039;SDS011;1025;42.686;23.350;2023-04-19T17:56:05;14.53;;;10.10;;
2039;SDS011;1025;42.686;23.350;2023-04-19T17:59:30;14.50;;;10.77;;
2039;SDS011;1025;42.686;23.350;2023-04-19T18:02:43;17.33;;;12.67;;
2039;SDS011;1025;42.686;23.350;2023-04-19T18:06:02;24.60;;;13.10;;
2039;SDS011;1025;42.686;23.350;2023-04-19T18:09:24;28.43;;;14.30;;
2039;SDS011;1025;42.686;23.350;2023-04-19T18:12:50;21.67;;;12.13;;
2039;SDS011;1025;42.686;23.350;2023-04-19T18:16:15;22.87;;;11.73;;
2039;SDS011;1025;42.686;23.350;2023-04-19T18:19:31;24.50;;;12.03;;
2039;SDS011;1025;42.686;23.350;2023-04-19T18:22:57;23.30;;;13.37;;
2039;SDS011;1025;42.686;23.350;2023-04-19T18:26:22;19.20;;;11.60;;
2039;SDS011;1025;42.686;23.350;2023-04-19T18:29:49;20.93;;;12.07;;
2039;SDS011;1025;42.686;23.350;2023-04-19T18:33:14;13.20;;;11.53;;
2039;SDS011;1025;42.686;23.350;2023-04-19T18:36:41;18.30;;;11.80;;
2039;SDS011;1025;42.686;23.350;2023-04-19T18:40:06;13.20;;;11.20;;
2039;SDS011;1025;42.686;23.350;2023-04-19T18:43:32;23.13;;;12.73;;
2039;SDS011;1025;42.686;23.350;2023-04-19T18:46:57;20.00;;;12.83;;
2039;SDS011;1025;42.686;23.350;2023-04-19T18:50:22;23.57;;;13.70;;
2039;SDS011;1025;42.686;23.350;2023-04-19T18:53:49;22.63;;;12.03;;
2039;SDS011;1025;42.686;23.350;2023-04-19T18:57:20;16.00;;;12.10;;
2039;SDS011;1025;42.686;23.350;2023-04-19T19:00:45;12.23;;;10.27;;
2039;SDS011;1025;42.686;23.350;2023-04-19T19:04:15;21.33;;;13.87;;
2039;SDS011;1025;42.686;23.350;2023-04-19T19:07:40;13.13;;;11.60;;
2039;SDS011;1025;42.686;23.350;2023-04-19T19:11:07;13.57;;;12.33;;
2039;SDS011;1025;42.686;23.350;2023-04-19T19:14:32;14.40;;;13.03;;
2039;SDS011;1025;42.686;23.350;2023-04-19T19:17:58;14.90;;;12.90;;
2039;SDS011;1025;42.686;23.350;2023-04-19T19:21:23;16.23;;;12.80;;
2039;SDS011;1025;42.686;23.350;2023-04-19T19:24:48;16.10;;;14.50;;
2039;SDS011;1025;42.686;23.350;2023-04-19T19:28:16;15.23;;;13.60;;
2039;SDS011;1025;42.686;23.350;2023-04-19T19:31:41;16.13;;;14.57;;
2039;SDS011;1025;42.686;23.350;2023-04-19T19:35:07;14.77;;;13.47;;
2039;SDS011;1025;42.686;23.350;2023-04-19T19:38:33;15.87;;;14.23;;
2039;SDS011;1025;42.686;23.350;2023-04-19T19:41:57;16.70;;;15.20;;
2039;SDS011;1025;42.686;23.350;2023-04-19T19:45:20;17.07;;;15.57;;
2039;SDS011;1025;42.686;23.350;2023-04-19T19:48:45;19.57;;;17.67;;
2039;SDS011;1025;42.686;23.350;2023-04-19T19:52:10;17.17;;;15.57;;
2039;SDS011;1025;42.686;23.350;2023-04-19T19:55:36;15.97;;;14.57;;
2039;SDS011;1025;42.686;23.350;2023-04-19T19:59:01;17.03;;;15.27;;
2039;SDS011;1025;42.686;23.350;2023-04-19T20:02:30;18.13;;;16.33;;
2039;SDS011;1025;42.686;23.350;2023-04-19T20:05:55;16.47;;;15.00;;
2039;SDS011;1025;42.686;23.350;2023-04-19T20:09:21;16.43;;;14.83;;
2039;SDS011;1025;42.686;23.350;2023-04-19T20:12:46;16.80;;;15.10;;
2039;SDS011;1025;42.686;23.350;2023-04-19T20:16:11;18.43;;;16.73;;
2039;SDS011;1025;42.686;23.350;2023-04-19T20:19:38;21.03;;;18.83;;
2039;SDS011;1025;42.686;23.350;2023-04-19T20:23:04;22.50;;;20.30;;
2039;SDS011;1025;42.686;23.350;2023-04-19T20:26:30;22.33;;;20.23;;
2039;SDS011;1025;42.686;23.350;2023-04-19T20:29:55;22.50;;;20.10;;
2039;SDS011;1025;42.686;23.350;2023-04-19T20:33:21;24.83;;;22.23;;
2039;SDS011;1025;42.686;23.350;2023-04-19T20:36:47;23.00;;;20.90;;
2039;SDS011;1025;42.686;23.350;2023-04-19T20:40:13;22.43;;;20.37;;
2039;SDS011;1025;42.686;23.350;2023-04-19T20:43:39;20.90;;;18.80;;
2039;SDS011;1025;42.686;23.350;2023-04-19T20:47:04;23.87;;;19.10;;
2039;SDS011;1025;42.686;23.350;2023-04-19T20:50:30;18.57;;;16.77;;